Drake, Kentucky
Current Conditions -  °F | °C
As of 7:31 AM on Tuesday 21 Oct 2014 (Local Time) from KBWG Reporting Station
Clear Clear  
Wind Chill: 46°   Ceiling: Unl
Heat Index: 46°   Visibility: 9mi
Dew Point: 43°   Wind: 0mph
Humidity: 89%   Direction: NA
Pressure: 30.04"   Gusts: NA
Location:  36.84°N, 86.41°W
Report Text: KBWG 211231Z AUTO 00000KT 9SM CLR 08/06 A3004 RMK AO2 T00780061
Loading
Personal Weather Stations






























Interactive Weather Map
Tropical Storm Tracking
New forecast layout! Learn more

10-Day Weather Forecast

Advertisements
Track Severe Weather on mobile